createdAt,value
2018-07-29T00:00:17.438Z,3.87
2018-07-29T00:03:21.745Z,3.30
2018-07-29T00:06:26.280Z,3.60
2018-07-29T00:09:30.556Z,4.07
2018-07-29T00:12:34.628Z,3.97
2018-07-29T00:15:38.999Z,4.13
2018-07-29T00:18:43.897Z,4.42
2018-07-29T00:21:48.148Z,3.80
2018-07-29T00:24:52.428Z,3.80
2018-07-29T00:27:56.848Z,6.67
2018-07-29T00:31:01.157Z,4.17
2018-07-29T00:34:05.672Z,4.10
2018-07-29T00:37:10.045Z,5.27
2018-07-29T00:40:14.399Z,4.13
2018-07-29T00:43:18.818Z,4.33
2018-07-29T00:46:22.837Z,4.30
2018-07-29T00:49:27.206Z,4.20
2018-07-29T00:52:31.478Z,5.27
2018-07-29T00:55:36.723Z,5.73
2018-07-29T00:58:41.046Z,4.17
2018-07-29T01:01:45.480Z,4.73
2018-07-29T01:04:49.785Z,4.30
2018-07-29T01:07:54.039Z,5.10
2018-07-29T01:10:58.384Z,6.30
2018-07-29T01:14:02.681Z,3.97
2018-07-29T01:17:06.994Z,4.40
2018-07-29T01:20:11.341Z,4.70
2018-07-29T01:23:15.764Z,4.87
2018-07-29T01:26:20.032Z,3.90
2018-07-29T01:29:24.290Z,3.87
2018-07-29T01:32:29.782Z,4.44
2018-07-29T01:35:34.501Z,3.97
2018-07-29T01:38:38.780Z,4.20
2018-07-29T01:41:43.933Z,4.17
2018-07-29T01:44:48.311Z,4.47
2018-07-29T01:47:52.579Z,5.23
2018-07-29T01:50:56.857Z,4.03
2018-07-29T01:54:01.130Z,3.97
2018-07-29T01:57:05.456Z,3.87
2018-07-29T02:00:09.828Z,4.43
2018-07-29T02:03:14.159Z,3.63
2018-07-29T02:06:18.744Z,3.60
2018-07-29T02:09:23.061Z,3.77
2018-07-29T02:12:27.471Z,3.60
2018-07-29T02:15:31.740Z,3.67
2018-07-29T02:18:36.112Z,3.13
2018-07-29T02:21:40.356Z,3.77
2018-07-29T02:24:44.623Z,3.70
2018-07-29T02:27:48.882Z,5.60
2018-07-29T02:30:53.158Z,3.87
2018-07-29T02:33:57.429Z,4.70
2018-07-29T02:37:01.878Z,3.87
2018-07-29T02:40:06.528Z,3.87
2018-07-29T02:43:10.749Z,3.43
2018-07-29T02:46:15.220Z,3.40
2018-07-29T02:49:19.574Z,4.45
2018-07-29T02:52:23.844Z,3.93
2018-07-29T02:55:28.453Z,3.87
2018-07-29T02:58:32.724Z,3.70
2018-07-29T03:01:37.104Z,4.07
2018-07-29T03:04:41.622Z,3.73
2018-07-29T03:07:46.038Z,4.47
2018-07-29T03:10:50.756Z,5.00
2018-07-29T03:13:55.033Z,3.50
2018-07-29T03:16:59.512Z,4.30
2018-07-29T03:20:03.788Z,2.90
2018-07-29T03:23:08.202Z,3.40
2018-07-29T03:26:12.688Z,3.70
2018-07-29T03:29:17.129Z,3.60
2018-07-29T03:32:21.398Z,3.80
2018-07-29T03:35:25.677Z,3.77
2018-07-29T03:38:29.941Z,3.60
2018-07-29T03:41:34.232Z,5.00
2018-07-29T03:44:38.789Z,3.13
2018-07-29T03:47:43.194Z,3.70
2018-07-29T03:50:47.446Z,4.00
2018-07-29T03:53:51.745Z,3.43
2018-07-29T03:56:56.186Z,3.10
2018-07-29T04:00:00.556Z,2.90
2018-07-29T04:03:05.053Z,3.40
2018-07-29T04:06:09.690Z,3.37
2018-07-29T04:09:13.966Z,4.00
2018-07-29T04:12:18.322Z,3.07
2018-07-29T04:15:22.681Z,3.50
2018-07-29T04:18:27.031Z,3.10
2018-07-29T04:21:31.476Z,3.40
2018-07-29T04:24:35.762Z,4.10
2018-07-29T04:27:40.241Z,3.83
2018-07-29T04:30:44.559Z,3.27
2018-07-29T04:33:48.662Z,3.20
2018-07-29T04:36:52.933Z,4.23
2018-07-29T04:39:57.344Z,5.33
2018-07-29T04:43:01.706Z,3.10
2018-07-29T04:46:06.002Z,3.47
2018-07-29T04:49:10.373Z,3.47
2018-07-29T04:52:14.776Z,3.87
2018-07-29T04:55:19.173Z,4.30
2018-07-29T04:58:23.502Z,4.07
2018-07-29T05:01:27.849Z,3.60
2018-07-29T05:04:32.609Z,5.23
2018-07-29T05:07:36.860Z,3.10
2018-07-29T05:10:41.270Z,3.03
2018-07-29T05:13:45.547Z,3.47
2018-07-29T05:16:50.005Z,3.17
2018-07-29T05:19:54.302Z,3.50
2018-07-29T05:22:58.881Z,3.10
2018-07-29T05:26:03.274Z,3.83
2018-07-29T05:29:07.784Z,5.63
2018-07-29T05:32:12.177Z,3.67
2018-07-29T05:35:16.531Z,3.30
2018-07-29T05:38:21.619Z,3.13
2018-07-29T05:41:26.757Z,3.20
2018-07-29T05:44:31.452Z,3.70
2018-07-29T05:47:36.352Z,3.03
2018-07-29T05:50:40.812Z,2.67
2018-07-29T05:53:45.176Z,3.70
2018-07-29T05:56:49.734Z,4.67
2018-07-29T05:59:54.158Z,5.93
2018-07-29T06:02:58.646Z,5.40
2018-07-29T06:06:02.964Z,3.33
2018-07-29T06:09:09.934Z,3.60
2018-07-29T06:12:14.318Z,3.03
2018-07-29T06:15:18.813Z,2.90
2018-07-29T06:18:24.242Z,2.97
2018-07-29T06:21:28.961Z,2.90
2018-07-29T06:24:33.143Z,4.20
2018-07-29T06:27:38.170Z,3.17
2018-07-29T06:30:43.781Z,3.30
2018-07-29T06:33:48.205Z,3.90
2018-07-29T06:36:52.633Z,2.73
2018-07-29T06:39:56.989Z,3.03
2018-07-29T06:43:01.415Z,2.80
2018-07-29T06:46:05.710Z,4.30
2018-07-29T06:49:10.223Z,3.20
2018-07-29T06:52:14.606Z,2.80
2018-07-29T06:55:19.026Z,3.50
2018-07-29T06:58:23.454Z,4.33
2018-07-29T07:01:28.084Z,3.90
2018-07-29T07:04:32.836Z,4.17
2018-07-29T07:07:37.096Z,4.30
2018-07-29T07:13:51.750Z,4.30
2018-07-29T07:16:56.531Z,4.23
2018-07-29T07:20:00.936Z,4.30
2018-07-29T07:23:05.495Z,4.30
2018-07-29T07:26:10.098Z,4.47
2018-07-29T07:29:14.470Z,4.10
2018-07-29T07:32:18.983Z,4.10
2018-07-29T07:35:23.354Z,4.13
2018-07-29T07:38:28.003Z,5.57
2018-07-29T07:41:32.431Z,4.23
2018-07-29T07:44:36.883Z,5.37
2018-07-29T07:47:42.029Z,4.27
2018-07-29T07:50:47.697Z,4.23
2018-07-29T07:53:51.972Z,4.40
2018-07-29T07:56:56.862Z,4.50
2018-07-29T08:00:01.218Z,3.67
2018-07-29T08:03:05.708Z,4.70
2018-07-29T08:06:39.441Z,4.07
2018-07-29T08:09:43.846Z,4.80
2018-07-29T08:12:48.488Z,3.90
2018-07-29T08:15:52.899Z,3.80
2018-07-29T08:18:57.374Z,5.27
2018-07-29T08:22:03.232Z,4.07
2018-07-29T08:25:07.839Z,3.90
2018-07-29T08:28:12.541Z,4.47
2018-07-29T08:31:17.239Z,4.37
2018-07-29T08:34:21.723Z,6.13
2018-07-29T08:37:26.025Z,4.07
2018-07-29T08:40:31.076Z,4.30
2018-07-29T08:43:35.427Z,3.53
2018-07-29T08:46:40.227Z,3.67
2018-07-29T08:49:44.598Z,5.43
2018-07-29T08:52:48.994Z,3.77
2018-07-29T08:55:53.491Z,3.37
2018-07-29T08:58:58.034Z,3.73
2018-07-29T09:02:02.357Z,3.80
2018-07-29T09:05:06.698Z,4.03
2018-07-29T09:08:11.234Z,3.37
2018-07-29T09:11:15.856Z,3.87
2018-07-29T09:14:20.349Z,5.47
2018-07-29T09:17:25.236Z,3.33
2018-07-29T09:20:30.229Z,3.47
2018-07-29T09:23:34.889Z,2.90
2018-07-29T09:26:39.437Z,3.73
2018-07-29T09:29:43.886Z,2.77
2018-07-29T09:32:48.522Z,2.45
2018-07-29T09:35:53.371Z,3.17
2018-07-29T09:38:58.401Z,3.40
2018-07-29T09:42:03.055Z,2.90
2018-07-29T09:45:08.045Z,2.30
2018-07-29T09:48:12.349Z,2.20
2018-07-29T09:51:16.708Z,3.40
2018-07-29T09:54:21.350Z,2.53
2018-07-29T09:57:25.823Z,2.20
2018-07-29T10:00:35.684Z,4.57
2018-07-29T10:03:41.524Z,4.67
2018-07-29T10:06:46.070Z,3.40
2018-07-29T10:09:50.522Z,3.30
2018-07-29T10:12:54.944Z,3.60
2018-07-29T10:15:59.333Z,3.90
2018-07-29T10:19:03.736Z,2.90
2018-07-29T10:22:08.418Z,2.80
2018-07-29T10:25:13.104Z,3.40
2018-07-29T10:28:17.593Z,3.27
2018-07-29T10:31:21.889Z,3.00
2018-07-29T10:34:26.304Z,3.55
2018-07-29T10:37:30.619Z,3.40
2018-07-29T10:43:47.093Z,3.10
2018-07-29T10:46:51.434Z,3.17
2018-07-29T10:49:55.745Z,3.23
2018-07-29T10:53:00.415Z,4.20
2018-07-29T10:56:04.805Z,3.70
2018-07-29T10:59:09.434Z,4.17
2018-07-29T11:02:13.806Z,3.70
2018-07-29T11:05:18.099Z,3.60
2018-07-29T11:08:22.921Z,2.93
2018-07-29T11:11:27.583Z,2.17
2018-07-29T11:14:31.941Z,3.43
2018-07-29T11:17:36.351Z,2.57
2018-07-29T11:20:40.464Z,3.23
2018-07-29T11:23:44.918Z,8.47
2018-07-29T11:26:49.377Z,2.70
2018-07-29T11:29:54.029Z,2.80
2018-07-29T11:32:58.476Z,3.37
2018-07-29T11:36:02.857Z,3.20
2018-07-29T11:39:09.797Z,3.37
2018-07-29T11:42:14.811Z,3.07
2018-07-29T11:45:19.176Z,3.33
2018-07-29T11:48:23.595Z,2.73
2018-07-29T11:51:27.978Z,3.40
2018-07-29T11:54:32.406Z,2.90
2018-07-29T11:57:37.375Z,2.97
2018-07-29T12:00:41.680Z,2.90
2018-07-29T12:03:45.778Z,3.10
2018-07-29T12:06:50.388Z,4.67
2018-07-29T12:09:54.809Z,2.73
2018-07-29T12:12:59.177Z,2.50
2018-07-29T12:16:03.523Z,2.80
2018-07-29T12:19:07.918Z,5.60
2018-07-29T12:22:12.381Z,2.70
2018-07-29T12:25:16.992Z,2.60
2018-07-29T12:28:21.379Z,3.00
2018-07-29T12:31:26.522Z,2.10
2018-07-29T12:34:30.944Z,2.20
2018-07-29T12:37:35.358Z,2.43
2018-07-29T12:40:39.654Z,2.97
2018-07-29T12:43:43.932Z,2.77
2018-07-29T12:46:48.334Z,4.60
2018-07-29T12:49:52.662Z,2.20
2018-07-29T12:52:57.177Z,2.83
2018-07-29T12:56:01.613Z,3.30
2018-07-29T12:59:06.219Z,2.33
2018-07-29T13:02:10.660Z,2.40
2018-07-29T13:05:15.457Z,2.27
2018-07-29T13:08:19.889Z,5.03
2018-07-29T13:11:24.248Z,3.00
2018-07-29T13:14:28.852Z,2.50
2018-07-29T13:17:33.328Z,2.67
2018-07-29T13:20:38.241Z,2.67
2018-07-29T13:23:42.589Z,2.73
2018-07-29T13:26:47.057Z,2.80
2018-07-29T13:29:51.605Z,2.93
2018-07-29T13:32:55.997Z,2.60
2018-07-29T13:36:00.591Z,3.87
2018-07-29T13:39:07.480Z,2.57
2018-07-29T13:42:11.953Z,3.27
2018-07-29T13:45:17.237Z,2.57
2018-07-29T13:48:21.743Z,2.60
2018-07-29T13:51:26.232Z,3.03
2018-07-29T13:54:31.823Z,2.40
2018-07-29T13:57:36.641Z,3.42
2018-07-29T14:00:41.184Z,3.10
2018-07-29T14:03:46.963Z,2.30
2018-07-29T14:06:52.308Z,2.00
2018-07-29T14:09:56.794Z,2.73
2018-07-29T14:13:01.391Z,2.00
2018-07-29T14:16:06.071Z,3.27
2018-07-29T14:19:11.043Z,2.87
2018-07-29T14:22:15.613Z,3.03
2018-07-29T14:25:20.436Z,2.53
2018-07-29T14:28:24.787Z,2.43
2018-07-29T14:31:29.303Z,3.30
2018-07-29T14:34:33.632Z,3.00
2018-07-29T14:37:37.965Z,2.90
2018-07-29T14:40:42.262Z,3.00
2018-07-29T14:43:46.553Z,2.57
2018-07-29T14:46:51.050Z,3.30
2018-07-29T14:49:55.941Z,3.20
2018-07-29T14:53:00.358Z,2.97
2018-07-29T14:56:04.712Z,4.53
2018-07-29T14:59:09.043Z,3.87
2018-07-29T15:02:13.461Z,3.30
2018-07-29T15:05:17.832Z,2.60
2018-07-29T15:08:22.508Z,3.43
2018-07-29T15:11:26.889Z,3.33
2018-07-29T15:15:35.225Z,2.93
2018-07-29T15:18:39.768Z,2.90
2018-07-29T15:21:44.418Z,3.57
2018-07-29T15:24:48.753Z,3.97
2018-07-29T15:27:53.122Z,3.83
2018-07-29T15:30:57.599Z,3.37
2018-07-29T15:34:02.191Z,5.00
2018-07-29T15:37:06.751Z,4.37
2018-07-29T15:40:11.239Z,2.87
2018-07-29T15:43:15.573Z,2.80
2018-07-29T15:46:20.196Z,4.53
2018-07-29T15:49:24.876Z,4.73
2018-07-29T15:52:29.167Z,5.70
2018-07-29T15:55:33.680Z,4.13
2018-07-29T15:58:38.009Z,3.30
2018-07-29T16:01:42.473Z,3.23
2018-07-29T16:04:46.771Z,3.17
2018-07-29T16:07:51.042Z,2.87
2018-07-29T16:10:55.747Z,3.97
2018-07-29T16:14:00.001Z,3.23
2018-07-29T16:17:04.468Z,2.97
2018-07-29T16:20:08.817Z,3.30
2018-07-29T16:23:13.174Z,5.90
2018-07-29T16:26:17.885Z,4.07
2018-07-29T16:29:22.314Z,4.13
2018-07-29T16:32:26.990Z,3.67
2018-07-29T16:35:31.433Z,3.67
2018-07-29T16:38:42.733Z,3.30
2018-07-29T16:41:47.144Z,3.50
2018-07-29T16:44:51.592Z,3.53
2018-07-29T16:47:55.871Z,4.57
2018-07-29T16:51:00.245Z,3.83
2018-07-29T16:54:04.856Z,4.57
2018-07-29T16:57:09.289Z,5.70
2018-07-29T17:00:13.556Z,4.53
2018-07-29T17:03:18.379Z,4.77
2018-07-29T17:06:23.030Z,4.63
2018-07-29T17:09:27.409Z,8.87
2018-07-29T17:12:32.046Z,3.43
2018-07-29T17:15:36.446Z,5.13
2018-07-29T17:18:41.813Z,4.10
2018-07-29T17:21:46.172Z,4.50
2018-07-29T17:24:50.473Z,5.33
2018-07-29T17:27:55.175Z,3.90
2018-07-29T17:30:59.469Z,5.33
2018-07-29T17:34:03.849Z,5.20
2018-07-29T17:37:08.321Z,3.77
2018-07-29T17:40:12.893Z,4.27
2018-07-29T17:43:17.520Z,3.53
2018-07-29T17:46:22.009Z,4.63
2018-07-29T17:49:26.516Z,4.97
2018-07-29T17:52:31.227Z,3.62
2018-07-29T17:55:35.733Z,4.00
2018-07-29T17:58:40.162Z,4.13
2018-07-29T18:01:44.673Z,3.93
2018-07-29T18:04:49.056Z,4.90
2018-07-29T18:07:53.684Z,5.80
2018-07-29T18:10:58.207Z,4.10
2018-07-29T18:14:02.487Z,3.90
2018-07-29T18:17:06.922Z,3.83
2018-07-29T18:20:11.298Z,5.00
2018-07-29T18:23:16.154Z,3.97
2018-07-29T18:26:20.202Z,3.77
2018-07-29T18:29:27.752Z,3.60
2018-07-29T18:32:32.346Z,3.83
2018-07-29T18:35:36.882Z,4.53
2018-07-29T18:38:41.189Z,4.90
2018-07-29T18:41:45.579Z,3.17
2018-07-29T18:44:50.045Z,3.90
2018-07-29T18:47:54.522Z,4.37
2018-07-29T18:50:58.880Z,6.30
2018-07-29T18:54:03.229Z,4.43
2018-07-29T18:57:07.556Z,3.93
2018-07-29T19:00:11.969Z,7.47
2018-07-29T19:03:16.273Z,6.33
2018-07-29T19:06:20.708Z,4.47
2018-07-29T19:09:25.072Z,5.83
2018-07-29T19:12:29.485Z,4.03
2018-07-29T19:15:33.977Z,8.73
2018-07-29T19:18:38.321Z,21.43
2018-07-29T19:21:42.686Z,21.90
2018-07-29T19:24:47.046Z,27.13
2018-07-29T19:27:51.384Z,34.85
2018-07-29T19:30:56.008Z,52.70
2018-07-29T19:34:00.708Z,31.73
2018-07-29T19:37:05.471Z,34.90
2018-07-29T19:40:09.972Z,31.80
2018-07-29T19:43:14.535Z,31.07
2018-07-29T19:46:19.711Z,20.00
2018-07-29T19:49:24.556Z,22.87
2018-07-29T19:52:30.153Z,18.17
2018-07-29T19:55:34.764Z,19.27
2018-07-29T19:58:39.237Z,10.27
2018-07-29T20:01:43.729Z,20.53
2018-07-29T20:04:48.964Z,21.53
2018-07-29T20:07:53.913Z,32.13
2018-07-29T20:10:58.394Z,23.93
2018-07-29T20:14:03.529Z,21.53
2018-07-29T20:17:08.096Z,15.40
2018-07-29T20:20:12.599Z,25.93
2018-07-29T20:23:17.119Z,22.73
2018-07-29T20:26:22.153Z,17.87
2018-07-29T20:29:26.510Z,12.90
2018-07-29T20:32:31.764Z,12.55
2018-07-29T20:35:36.511Z,9.60
2018-07-29T20:38:40.991Z,9.40
2018-07-29T20:41:45.648Z,14.67
2018-07-29T20:44:50.104Z,7.23
2018-07-29T20:47:54.758Z,10.93
2018-07-29T20:50:59.204Z,7.70
2018-07-29T20:54:03.657Z,10.67
2018-07-29T20:57:08.057Z,9.00
2018-07-29T21:00:12.513Z,5.70
2018-07-29T21:03:16.909Z,9.17
2018-07-29T21:06:21.221Z,8.97
2018-07-29T21:09:25.600Z,11.30
2018-07-29T21:12:30.357Z,7.40
2018-07-29T21:15:34.699Z,7.97
2018-07-29T21:18:39.177Z,8.50
2018-07-29T21:21:43.438Z,7.93
2018-07-29T21:24:48.028Z,6.47
2018-07-29T21:27:52.321Z,8.65
2018-07-29T21:30:56.672Z,13.90
2018-07-29T21:34:01.196Z,12.87
2018-07-29T21:37:05.572Z,10.87
2018-07-29T21:40:10.418Z,12.47
2018-07-29T21:43:14.853Z,15.03
2018-07-29T21:46:20.176Z,9.17
2018-07-29T21:49:24.492Z,9.67
2018-07-29T21:52:28.979Z,6.20
2018-07-29T21:55:33.557Z,11.17
2018-07-29T21:58:37.817Z,6.53
2018-07-29T22:01:42.375Z,8.53
2018-07-29T22:04:46.921Z,9.00
2018-07-29T22:07:51.257Z,7.50
2018-07-29T22:10:55.634Z,6.73
2018-07-29T22:13:59.922Z,7.53
2018-07-29T22:17:04.249Z,8.60
2018-07-29T22:20:09.078Z,6.73
2018-07-29T22:23:13.561Z,6.63
2018-07-29T22:26:18.144Z,6.43
2018-07-29T22:29:27.659Z,7.57
2018-07-29T22:32:32.918Z,7.17
2018-07-29T22:35:37.222Z,7.77
2018-07-29T22:38:41.861Z,7.23
2018-07-29T22:41:46.408Z,8.00
2018-07-29T22:44:50.756Z,7.60
2018-07-29T22:47:55.195Z,6.90
2018-07-29T22:50:59.657Z,7.97
2018-07-29T22:54:03.964Z,7.83
2018-07-29T22:57:08.327Z,7.13
2018-07-29T23:00:13.240Z,9.03
2018-07-29T23:03:17.790Z,7.83
2018-07-29T23:06:22.262Z,7.80
2018-07-29T23:09:26.724Z,8.77
2018-07-29T23:12:32.266Z,7.65
2018-07-29T23:15:36.551Z,7.10
2018-07-29T23:18:41.047Z,9.70
2018-07-29T23:21:45.337Z,7.80
2018-07-29T23:24:50.307Z,7.27
2018-07-29T23:27:54.576Z,10.43
2018-07-29T23:30:58.855Z,7.43
2018-07-29T23:34:03.119Z,8.07
2018-07-29T23:37:07.764Z,8.67
2018-07-29T23:40:12.054Z,7.37
2018-07-29T23:43:16.480Z,8.83
2018-07-29T23:46:20.822Z,7.17
2018-07-29T23:49:25.534Z,8.03
2018-07-29T23:52:30.432Z,7.87
2018-07-29T23:55:34.777Z,7.47
2018-07-29T23:58:39.199Z,6.87
